Jonni Ritscher — A8JT7 — position and weather

sailwx.info

Track history (hours):
 
Tides and Currents Weather Stations Pressure Air Temp Water Temp Dewpoint Dewpoint Depression Visibility Wind Speed Wind Dir Waves Ship Positions

Jonni Ritscher

Last reported at 2017-Apr-27 14:00 UTC. Time now 2017-Apr-27 18:53 UTC.
Position N 56°57' E 008°04'.

Length 178 m; draft 10.9 m.

Type: Ship (hazmat cat A). MMSI: 636091136.

Date/timePositionNaut miles runAvg speedWind from/ knotsBaromVisibWave heightAir tempDewpointWater temp
2017-Apr-27 14:00N 56°57' E 008°04'815.7
2017-Apr-27 13:30N 56°50' E 007°56'815.5
2017-Apr-27 13:00N 56°44' E 007°48'815.5
2017-Apr-27 12:30N 56°37' E 007°41'24216.4
2017-Apr-26 21:43N 53°03' E 004°24'315.3
2017-Apr-26 21:30N 53°00' E 004°21'815.2
2017-Apr-26 21:00N 52°53' E 004°16'1115.2
2017-Apr-26 20:16N 52°44' E 004°07'415.1
2017-Apr-26 20:00N 52°40' E 004°03'815.3
2017-Apr-26 19:30N 52°34' E 003°57'915.3
2017-Apr-26 18:56N 52°25' E 003°53'715.8
2017-Apr-26 18:30N 52°19' E 003°52'816.2
2017-Apr-26 18:00N 52°11' E 003°54'612.3
2017-Apr-26 17:30N 52°08' E 003°45'1 1.7
2017-Apr-26 16:59N 52°08' E 003°43'0 0.4
2017-Apr-26 16:30N 52°08' E 003°44'0 0.0
2017-Apr-26 16:00N 52°08' E 003°44'1 2.7
2017-Apr-26 15:30N 52°07' E 003°46'510.7
2017-Apr-26 15:01N 52°05' E 003°53'9 8.7
2017-Apr-26 14:00N 51°59' E 004°04'2 3.4
2017-Apr-26 13:31N 51°58' E 004°03'0 0.0
2017-Apr-26 13:00N 51°57' E 004°03'0 0.0
2017-Apr-26 12:29N 51°57' E 004°03'0 0.0
2017-Apr-26 11:59N 51°57' E 004°03'0 0.0
2017-Apr-26 11:29N 51°57' E 004°03'0 0.0
2017-Apr-26 10:55N 51°57' E 004°03'0 0.0
2017-Apr-26 10:29N 51°57' E 004°03'0 0.0
2017-Apr-26 09:58N 51°57' E 004°03'0 0.0
2017-Apr-26 09:28N 51°57' E 004°03'0 0.0
2017-Apr-26 08:58N 51°57' E 004°03'0 0.0
2017-Apr-26 08:30N 51°57' E 004°03'0 0.0
2017-Apr-26 08:00N 51°57' E 004°03'0 0.0
2017-Apr-26 07:30N 51°57' E 004°03'0 0.0
2017-Apr-26 07:00N 51°57' E 004°03'0 0.0
2017-Apr-26 06:29N 51°57' E 004°03'0 0.0
2017-Apr-26 06:00N 51°57' E 004°03'0 0.0
2017-Apr-26 05:29N 51°57' E 004°03'0 0.0
2017-Apr-26 04:59N 51°57' E 004°03'0 0.0
2017-Apr-26 04:29N 51°57' E 004°03'0 0.0
2017-Apr-26 03:58N 51°57' E 004°03'0 0.0
2017-Apr-26 03:28N 51°57' E 004°03'0 0.0
2017-Apr-26 02:58N 51°57' E 004°03'0 0.0
2017-Apr-26 02:28N 51°57' E 004°03'0 0.0
2017-Apr-26 01:58N 51°57' E 004°03'0 0.0
2017-Apr-26 01:30N 51°57' E 004°03'0 0.0
2017-Apr-26 01:00N 51°57' E 004°03'0 0.0
2017-Apr-26 00:30N 51°57' E 004°03'0 0.0
2017-Apr-26 00:00N 51°57' E 004°03'0 0.0
2017-Apr-25 23:29N 51°57' E 004°03'0 0.0
2017-Apr-25 23:00N 51°57' E 004°03'0 0.0
2017-Apr-25 22:29N 51°57' E 004°03'0 0.0
2017-Apr-25 21:59N 51°57' E 004°03'0 0.0
2017-Apr-25 21:29N 51°57' E 004°03'0 0.0
2017-Apr-25 20:59N 51°57' E 004°03'0 0.0
2017-Apr-25 20:29N 51°57' E 004°03'0 0.0
2017-Apr-25 19:58N 51°57' E 004°03'0 0.0
2017-Apr-25 19:29N 51°57' E 004°03'0 0.0
2017-Apr-25 18:57N 51°57' E 004°03'0 0.0
2017-Apr-25 18:30N 51°57' E 004°03'0 0.0
2017-Apr-25 18:00N 51°57' E 004°03'0 0.0
2017-Apr-25 17:30N 51°57' E 004°03'0 0.0
2017-Apr-25 17:00N 51°57' E 004°03'0 0.0
2017-Apr-25 16:29N 51°57' E 004°03'0 1.0
2017-Apr-25 16:00N 51°58' E 004°04'2 4.6
2017-Apr-25 15:30N 51°58' E 004°00'1 2.4
2017-Apr-25 14:59N 51°57' E 003°60'0 0.0
2017-Apr-25 13:59N 51°57' E 003°60'0 0.0
2017-Apr-25 13:26N 51°57' E 003°60'0 0.0
2017-Apr-25 12:59N 51°57' E 003°60'0 0.0
2017-Apr-25 12:28N 51°57' E 003°60'0 0.0
2017-Apr-25 11:58N 51°57' E 003°60'0 0.0
2017-Apr-25 11:28N 51°57' E 003°60'0 0.0
2017-Apr-25 11:00N 51°57' E 003°60'0 0.0
2017-Apr-25 10:30N 51°57' E 003°60'0 0.0
2017-Apr-25 10:00N 51°57' E 003°60'0 0.0
2017-Apr-25 09:27N 51°57' E 003°60'0 0.0
2017-Apr-25 08:59N 51°57' E 003°60'0 0.0
2017-Apr-25 08:27N 51°57' E 003°60'0 0.0
2017-Apr-25 07:59N 51°57' E 003°60'0 0.0
2017-Apr-25 07:26N 51°57' E 003°60'0 0.0
2017-Apr-25 06:56N 51°57' E 003°60'0 0.0
2017-Apr-25 06:28N 51°57' E 003°60'0 0.0
2017-Apr-25 05:58N 51°57' E 003°60'0 0.0
2017-Apr-25 05:30N 51°57' E 003°60'0 0.0
2017-Apr-25 04:58N 51°57' E 003°60'0 0.0
2017-Apr-25 04:31N 51°57' E 003°60'0 0.0
2017-Apr-25 03:52N 51°57' E 003°60'0 0.0
2017-Apr-25 03:30N 51°57' E 003°60'0 0.0
2017-Apr-25 03:00N 51°57' E 003°60'0 0.0
2017-Apr-25 02:30N 51°57' E 003°60'0 0.0
2017-Apr-25 02:00N 51°57' E 003°60'0 0.0
2017-Apr-25 01:26N 51°57' E 003°60'0 0.0
2017-Apr-25 00:59N 51°57' E 003°60'0 0.0
2017-Apr-25 00:29N 51°57' E 003°60'0 0.0
2017-Apr-24 23:59N 51°57' E 003°60'0 0.0
2017-Apr-24 23:29N 51°57' E 003°60'0 0.0
2017-Apr-24 22:49N 51°57' E 003°60'0 0.0
2017-Apr-24 22:28N 51°57' E 003°60'0 0.0
2017-Apr-24 21:58N 51°57' E 003°60'0 0.0
2017-Apr-24 21:30N 51°57' E 003°60'0 0.0
2017-Apr-24 21:00N 51°57' E 003°60'0 0.0
2017-Apr-24 20:30N 51°57' E 003°60'0 0.0
2017-Apr-24 20:00N 51°57' E 003°60'0 0.0
2017-Apr-24 19:30N 51°57' E 003°60'0 0.0
2017-Apr-24 18:57N 51°57' E 003°60'0 0.0
2017-Apr-24 18:29N 51°57' E 003°60'0 0.0
2017-Apr-24 17:53N 51°57' E 003°60'0 0.0
2017-Apr-24 17:26N 51°57' E 003°60'0 0.0
2017-Apr-24 16:58N 51°57' E 003°60'0 0.0
2017-Apr-24 16:29N 51°57' E 003°60'0 0.0
2017-Apr-24 15:55N 51°57' E 003°60'0 0.0
2017-Apr-24 15:28N 51°57' E 003°60'0 0.0
2017-Apr-24 14:58N 51°57' E 003°60'0 0.0
2017-Apr-24 14:30N 51°57' E 003°60'0 0.0
2017-Apr-24 13:30N 51°57' E 003°60'0 0.0
2017-Apr-24 13:00N 51°57' E 003°60'0 0.0
2017-Apr-24 12:30N 51°57' E 003°60'1 1.3
2017-Apr-24 12:00N 51°58' E 004°00'3 5.1
2017-Apr-24 11:30N 51°58' E 004°04'4 7.1
2017-Apr-24 11:01N 51°60' E 003°60'612.8
2017-Apr-24 10:30N 52°01' E 003°49'612.2
2017-Apr-24 10:00N 52°03' E 003°40'16214.3
2017-Apr-23 22:40N 54°14' E 000°59'215.9
2017-Apr-23 22:30N 54°15' E 000°55'816.0
2017-Apr-23 22:01N 54°19' E 000°43'816.2
2017-Apr-23 21:30N 54°23' E 000°31'816.2
2017-Apr-23 21:01N 54°27' E 000°20'816.2
2017-Apr-23 20:30N 54°31' E 000°08'815.7
2017-Apr-23 20:01N 54°35' W 000°04'815.6
2017-Apr-23 19:31N 54°39' W 000°16'815.6
2017-Apr-23 19:00N 54°43' W 000°27'1315.6
2017-Apr-23 18:12N 54°50' W 000°46'415.7
2017-Apr-23 17:58N 54°52' W 000°52'715.9
2017-Apr-23 17:30N 54°55' W 001°03'816.0
2017-Apr-23 17:00N 54°60' W 001°14'510.2
2017-Apr-23 16:31N 55°01' W 001°23'3 6.1
2017-Apr-23 16:00N 54°59' W 001°27'0 0.2
2017-Apr-23 15:24N 54°59' W 001°27'0 0.0
2017-Apr-23 15:00N 54°59' W 001°27'0 0.0
2017-Apr-23 14:00N 54°59' W 001°27'0 0.0
2017-Apr-23 13:23N 54°59' W 001°27'0 0.0
2017-Apr-23 12:57N 54°59' W 001°27'1 1.4
2017-Apr-23 12:31N 54°60' W 001°27'3 6.2
2017-Apr-23 12:01N 55°01' W 001°22'3 5.1
2017-Apr-23 11:30N 55°02' W 001°18'3 6.9
2017-Apr-23 11:00N 55°04' W 001°13'4 8.8
2017-Apr-23 10:30N 55°05' W 001°05'5 9.2
2017-Apr-23 10:00N 55°07' W 000°58'5 9.2
2017-Apr-23 09:30N 55°09' W 000°51'4 8.9
2017-Apr-23 09:00N 55°12' W 000°44'39712.1
2017-Apr-22 00:05N 57°50' E 010°16'112.2
2017-Apr-22 00:00N 57°50' E 010°18'612.2
2017-Apr-21 23:30N 57°50' E 010°29'611.2
2017-Apr-21 22:58N 57°50' E 010°41'510.7
2017-Apr-21 22:30N 57°47' E 010°48'612.4
2017-Apr-21 22:00N 57°43' E 010°56'612.5
2017-Apr-21 21:30N 57°38' E 011°05'612.4
2017-Apr-21 21:01N 57°34' E 011°14'612.2
2017-Apr-21 20:29N 57°30' E 011°23'511.1
2017-Apr-21 20:00N 57°26' E 011°28'511.1
2017-Apr-21 19:31N 57°20' E 011°32'611.5
2017-Apr-21 18:59N 57°15' E 011°36'611.7
2017-Apr-21 18:30N 57°10' E 011°39'612.2
2017-Apr-21 18:00N 57°04' E 011°43'10910.3
2017-Apr-21 07:23N 55°17' E 011°04'410.4
2017-Apr-21 07:00N 55°13' E 011°06'511.2
2017-Apr-21 06:30N 55°09' E 010°59'611.2
2017-Apr-21 06:00N 55°03' E 011°00'611.4
2017-Apr-21 05:30N 54°58' E 010°57'611.7
2017-Apr-21 05:00N 54°53' E 010°51'611.9
2017-Apr-21 04:30N 54°47' E 010°50'611.9
2017-Apr-21 04:00N 54°42' E 010°47'510.4
2017-Apr-21 03:30N 54°38' E 010°54'510.8
2017-Apr-21 03:00N 54°36' E 011°02'611.1
2017-Apr-21 02:30N 54°36' E 011°12'510.6
2017-Apr-21 02:00N 54°33' E 011°20'510.8
2017-Apr-21 01:30N 54°31' E 011°28'510.9
2017-Apr-21 01:00N 54°29' E 011°37'711.0
2017-Apr-21 00:24N 54°26' E 011°47'1510.6
2017-Apr-20 23:01N 54°28' E 012°12'011.6
2017-Apr-20 23:00N 54°28' E 012°12'611.7
2017-Apr-20 22:30N 54°34' E 012°15'611.1
2017-Apr-20 22:00N 54°38' E 012°22'711.8
2017-Apr-20 21:22N 54°42' E 012°33'3111.2
2017-Apr-20 18:39N 54°55' E 013°21'211.4
2017-Apr-20 18:27N 54°56' E 013°24'511.7
2017-Apr-20 18:00N 54°58' E 013°33'611.7
2017-Apr-20 17:29N 54°60' E 013°43'611.6
2017-Apr-20 16:58N 55°02' E 013°52'511.5
2017-Apr-20 16:30N 55°04' E 014°01'611.0
2017-Apr-20 16:00N 55°08' E 014°08'611.1
2017-Apr-20 15:30N 55°12' E 014°14'611.3
2017-Apr-20 15:00N 55°17' E 014°20'611.1
2017-Apr-20 14:30N 55°21' E 014°26'1110.8
2017-Apr-20 13:30N 55°28' E 014°40'510.7
2017-Apr-20 13:00N 55°31' E 014°48'611.0
2017-Apr-20 12:30N 55°34' E 014°57'611.6
2017-Apr-20 12:00N 55°36' E 015°06'611.6
2017-Apr-20 11:27N 55°40' E 015°16'611.6
2017-Apr-20 10:58N 55°42' E 015°25'33411.0
2017-Apr-19 04:39N 59°34' E 022°53'311.3
2017-Apr-19 04:25N 59°35' E 022°58'511.2
2017-Apr-19 04:00N 59°36' E 023°07'611.1
2017-Apr-19 03:30N 59°38' E 023°18'511.1
2017-Apr-19 03:00N 59°40' E 023°28'611.2
2017-Apr-19 02:29N 59°41' E 023°40'511.3
2017-Apr-19 02:00N 59°43' E 023°50'611.4
2017-Apr-19 01:30N 59°44' E 024°01'611.4
2017-Apr-19 01:00N 59°46' E 024°12'711.5
2017-Apr-19 00:21N 59°47' E 024°26'4511.4
2017-Apr-18 20:24N 59°56' E 025°54'1711.1
2017-Apr-18 18:54N 60°00' E 026°26'1310.8
2017-Apr-18 17:42N 60°00' E 026°52'910.6
2017-Apr-18 16:50N 60°02' E 027°10'410.8
2017-Apr-18 16:29N 60°04' E 027°17'511.1
2017-Apr-18 16:00N 60°06' E 027°26'612.0
2017-Apr-18 15:30N 60°09' E 027°36'611.3
2017-Apr-18 15:00N 60°12' E 027°46'1110.8
2017-Apr-18 14:00N 60°10' E 028°07'510.8
2017-Apr-18 13:30N 60°08' E 028°17'610.9
2017-Apr-18 13:00N 60°05' E 028°26'510.9
2017-Apr-18 12:30N 60°03' E 028°37'611.1
2017-Apr-18 12:00N 60°03' E 028°48'611.1
2017-Apr-18 11:30N 60°02' E 028°59'611.4
2017-Apr-18 11:00N 60°02' E 029°10'611.4
2017-Apr-18 10:29N 60°02' E 029°22'6 9.7
2017-Apr-18 09:55N 60°01' E 029°33'5 9.8
2017-Apr-18 09:26N 59°59' E 029°42'4 9.7
2017-Apr-18 09:00N 59°57' E 029°49'612.7
2017-Apr-18 08:30N 59°55' E 030°01'5 9.4
2017-Apr-18 08:00N 59°53' E 030°10'1 2.1
2017-Apr-18 07:25N 59°53' E 030°12'0 0.0
2017-Apr-18 06:58N 59°53' E 030°12'0 0.2
2017-Apr-18 06:28N 59°53' E 030°12'0 0.2
2017-Apr-18 05:58N 59°53' E 030°12'0 0.0
2017-Apr-18 05:24N 59°53' E 030°12'0 0.0
2017-Apr-18 05:00N 59°53' E 030°12'0 0.0
2017-Apr-18 04:30N 59°53' E 030°12'0 0.0
2017-Apr-18 04:00N 59°53' E 030°12'0 0.2
2017-Apr-18 03:30N 59°53' E 030°12'0 0.2
2017-Apr-18 02:59N 59°53' E 030°12'0 0.0
2017-Apr-18 02:29N 59°53' E 030°12'0 0.2
2017-Apr-18 01:59N 59°53' E 030°12'0 0.2
2017-Apr-18 01:29N 59°53' E 030°12'0 0.0
2017-Apr-18 00:58N 59°53' E 030°12'0 0.0
2017-Apr-18 00:28N 59°53' E 030°12'0 0.0
2017-Apr-17 23:58N 59°53' E 030°12'0 0.0
2017-Apr-17 23:28N 59°53' E 030°12'0 0.2
2017-Apr-17 22:58N 59°53' E 030°12'0 0.2
2017-Apr-17 22:30N 59°53' E 030°12'0 0.0
2017-Apr-17 22:00N 59°53' E 030°12'0 0.0
2017-Apr-17 21:30N 59°53' E 030°12'0 0.2
2017-Apr-17 21:00N 59°53' E 030°12'0 0.0
2017-Apr-17 20:30N 59°53' E 030°12'0 0.2
2017-Apr-17 19:59N 59°53' E 030°12'0 0.0
2017-Apr-17 19:29N 59°53' E 030°12'0 0.0
2017-Apr-17 18:59N 59°53' E 030°12'0 0.0
2017-Apr-17 18:29N 59°53' E 030°12'0 0.0
2017-Apr-17 17:58N 59°53' E 030°12'0 0.0
2017-Apr-17 17:28N 59°53' E 030°12'0 0.0
2017-Apr-17 16:58N 59°53' E 030°12'0 0.0
2017-Apr-17 16:28N 59°53' E 030°12'0 0.0
2017-Apr-17 15:58N 59°53' E 030°12'0 0.0
2017-Apr-17 15:27N 59°53' E 030°12'0 0.0
2017-Apr-17 15:00N 59°53' E 030°12'  
Track history (hours):
 
Tides and Currents Weather Stations Pressure Air Temp Water Temp Dewpoint Dewpoint Depression Visibility Wind Speed Wind Dir Waves Ship Positions

Jonni Ritscher

Last reported at 2017-Apr-27 14:00 UTC. Time now 2017-Apr-27 18:53 UTC.
Position N 56°57' E 008°04'.

Length 178 m; draft 10.9 m.

Type: Ship (hazmat cat A). MMSI: 636091136.

Date/timePositionNaut miles runAvg speedWind from/ knotsBaromVisibWave heightAir tempDewpointWater temp
2017-Apr-27 14:00N 56°57' E 008°04'815.7
2017-Apr-27 13:30N 56°50' E 007°56'815.5
2017-Apr-27 13:00N 56°44' E 007°48'815.5
2017-Apr-27 12:30N 56°37' E 007°41'24216.4
2017-Apr-26 21:43N 53°03' E 004°24'315.3
2017-Apr-26 21:30N 53°00' E 004°21'815.2
2017-Apr-26 21:00N 52°53' E 004°16'1115.2
2017-Apr-26 20:16N 52°44' E 004°07'415.1
2017-Apr-26 20:00N 52°40' E 004°03'815.3
2017-Apr-26 19:30N 52°34' E 003°57'915.3
2017-Apr-26 18:56N 52°25' E 003°53'715.8
2017-Apr-26 18:30N 52°19' E 003°52'816.2
2017-Apr-26 18:00N 52°11' E 003°54'612.3
2017-Apr-26 17:30N 52°08' E 003°45'1 1.7
2017-Apr-26 16:59N 52°08' E 003°43'0 0.4
2017-Apr-26 16:30N 52°08' E 003°44'0 0.0
2017-Apr-26 16:00N 52°08' E 003°44'1 2.7
2017-Apr-26 15:30N 52°07' E 003°46'510.7
2017-Apr-26 15:01N 52°05' E 003°53'9 8.7
2017-Apr-26 14:00N 51°59' E 004°04'2 3.4
2017-Apr-26 13:31N 51°58' E 004°03'0 0.0
2017-Apr-26 13:00N 51°57' E 004°03'0 0.0
2017-Apr-26 12:29N 51°57' E 004°03'0 0.0
2017-Apr-26 11:59N 51°57' E 004°03'0 0.0
2017-Apr-26 11:29N 51°57' E 004°03'0 0.0
2017-Apr-26 10:55N 51°57' E 004°03'0 0.0
2017-Apr-26 10:29N 51°57' E 004°03'0 0.0
2017-Apr-26 09:58N 51°57' E 004°03'0 0.0
2017-Apr-26 09:28N 51°57' E 004°03'0 0.0
2017-Apr-26 08:58N 51°57' E 004°03'0 0.0
2017-Apr-26 08:30N 51°57' E 004°03'0 0.0
2017-Apr-26 08:00N 51°57' E 004°03'0 0.0
2017-Apr-26 07:30N 51°57' E 004°03'0 0.0
2017-Apr-26 07:00N 51°57' E 004°03'0 0.0
2017-Apr-26 06:29N 51°57' E 004°03'0 0.0
2017-Apr-26 06:00N 51°57' E 004°03'0 0.0
2017-Apr-26 05:29N 51°57' E 004°03'0 0.0
2017-Apr-26 04:59N 51°57' E 004°03'0 0.0
2017-Apr-26 04:29N 51°57' E 004°03'0 0.0
2017-Apr-26 03:58N 51°57' E 004°03'0 0.0
2017-Apr-26 03:28N 51°57' E 004°03'0 0.0
2017-Apr-26 02:58N 51°57' E 004°03'0 0.0
2017-Apr-26 02:28N 51°57' E 004°03'0 0.0
2017-Apr-26 01:58N 51°57' E 004°03'0 0.0
2017-Apr-26 01:30N 51°57' E 004°03'0 0.0
2017-Apr-26 01:00N 51°57' E 004°03'0 0.0
2017-Apr-26 00:30N 51°57' E 004°03'0 0.0
2017-Apr-26 00:00N 51°57' E 004°03'0 0.0
2017-Apr-25 23:29N 51°57' E 004°03'0 0.0
2017-Apr-25 23:00N 51°57' E 004°03'0 0.0
2017-Apr-25 22:29N 51°57' E 004°03'0 0.0
2017-Apr-25 21:59N 51°57' E 004°03'0 0.0
2017-Apr-25 21:29N 51°57' E 004°03'0 0.0
2017-Apr-25 20:59N 51°57' E 004°03'0 0.0
2017-Apr-25 20:29N 51°57' E 004°03'0 0.0
2017-Apr-25 19:58N 51°57' E 004°03'0 0.0
2017-Apr-25 19:29N 51°57' E 004°03'0 0.0
2017-Apr-25 18:57N 51°57' E 004°03'0 0.0
2017-Apr-25 18:30N 51°57' E 004°03'0 0.0
2017-Apr-25 18:00N 51°57' E 004°03'0 0.0
2017-Apr-25 17:30N 51°57' E 004°03'0 0.0
2017-Apr-25 17:00N 51°57' E 004°03'0 0.0
2017-Apr-25 16:29N 51°57' E 004°03'0 1.0
2017-Apr-25 16:00N 51°58' E 004°04'2 4.6
2017-Apr-25 15:30N 51°58' E 004°00'1 2.4
2017-Apr-25 14:59N 51°57' E 003°60'0 0.0
2017-Apr-25 13:59N 51°57' E 003°60'0 0.0
2017-Apr-25 13:26N 51°57' E 003°60'0 0.0
2017-Apr-25 12:59N 51°57' E 003°60'0 0.0
2017-Apr-25 12:28N 51°57' E 003°60'0 0.0
2017-Apr-25 11:58N 51°57' E 003°60'0 0.0
2017-Apr-25 11:28N 51°57' E 003°60'0 0.0
2017-Apr-25 11:00N 51°57' E 003°60'0 0.0
2017-Apr-25 10:30N 51°57' E 003°60'0 0.0
2017-Apr-25 10:00N 51°57' E 003°60'0 0.0
2017-Apr-25 09:27N 51°57' E 003°60'0 0.0
2017-Apr-25 08:59N 51°57' E 003°60'0 0.0
2017-Apr-25 08:27N 51°57' E 003°60'0 0.0
2017-Apr-25 07:59N 51°57' E 003°60'0 0.0
2017-Apr-25 07:26N 51°57' E 003°60'0 0.0
2017-Apr-25 06:56N 51°57' E 003°60'0 0.0
2017-Apr-25 06:28N 51°57' E 003°60'0 0.0
2017-Apr-25 05:58N 51°57' E 003°60'0 0.0
2017-Apr-25 05:30N 51°57' E 003°60'0 0.0
2017-Apr-25 04:58N 51°57' E 003°60'0 0.0
2017-Apr-25 04:31N 51°57' E 003°60'0 0.0
2017-Apr-25 03:52N 51°57' E 003°60'0 0.0
2017-Apr-25 03:30N 51°57' E 003°60'0 0.0
2017-Apr-25 03:00N 51°57' E 003°60'0 0.0
2017-Apr-25 02:30N 51°57' E 003°60'0 0.0
2017-Apr-25 02:00N 51°57' E 003°60'0 0.0
2017-Apr-25 01:26N 51°57' E 003°60'0 0.0
2017-Apr-25 00:59N 51°57' E 003°60'0 0.0
2017-Apr-25 00:29N 51°57' E 003°60'0 0.0
2017-Apr-24 23:59N 51°57' E 003°60'0 0.0
2017-Apr-24 23:29N 51°57' E 003°60'0 0.0
2017-Apr-24 22:49N 51°57' E 003°60'0 0.0
2017-Apr-24 22:28N 51°57' E 003°60'0 0.0
2017-Apr-24 21:58N 51°57' E 003°60'0 0.0
2017-Apr-24 21:30N 51°57' E 003°60'0 0.0
2017-Apr-24 21:00N 51°57' E 003°60'0 0.0
2017-Apr-24 20:30N 51°57' E 003°60'0 0.0
2017-Apr-24 20:00N 51°57' E 003°60'0 0.0
2017-Apr-24 19:30N 51°57' E 003°60'0 0.0
2017-Apr-24 18:57N 51°57' E 003°60'0 0.0
2017-Apr-24 18:29N 51°57' E 003°60'0 0.0
2017-Apr-24 17:53N 51°57' E 003°60'0 0.0
2017-Apr-24 17:26N 51°57' E 003°60'0 0.0
2017-Apr-24 16:58N 51°57' E 003°60'0 0.0
2017-Apr-24 16:29N 51°57' E 003°60'0 0.0
2017-Apr-24 15:55N 51°57' E 003°60'0 0.0
2017-Apr-24 15:28N 51°57' E 003°60'0 0.0
2017-Apr-24 14:58N 51°57' E 003°60'0 0.0
2017-Apr-24 14:30N 51°57' E 003°60'0 0.0
2017-Apr-24 13:30N 51°57' E 003°60'0 0.0
2017-Apr-24 13:00N 51°57' E 003°60'0 0.0
2017-Apr-24 12:30N 51°57' E 003°60'1 1.3
2017-Apr-24 12:00N 51°58' E 004°00'3 5.1
2017-Apr-24 11:30N 51°58' E 004°04'4 7.1
2017-Apr-24 11:01N 51°60' E 003°60'612.8
2017-Apr-24 10:30N 52°01' E 003°49'612.2
2017-Apr-24 10:00N 52°03' E 003°40'16214.3
2017-Apr-23 22:40N 54°14' E 000°59'215.9
2017-Apr-23 22:30N 54°15' E 000°55'816.0
2017-Apr-23 22:01N 54°19' E 000°43'816.2
2017-Apr-23 21:30N 54°23' E 000°31'816.2
2017-Apr-23 21:01N 54°27' E 000°20'816.2
2017-Apr-23 20:30N 54°31' E 000°08'815.7
2017-Apr-23 20:01N 54°35' W 000°04'815.6
2017-Apr-23 19:31N 54°39' W 000°16'815.6
2017-Apr-23 19:00N 54°43' W 000°27'1315.6
2017-Apr-23 18:12N 54°50' W 000°46'415.7
2017-Apr-23 17:58N 54°52' W 000°52'715.9
2017-Apr-23 17:30N 54°55' W 001°03'816.0
2017-Apr-23 17:00N 54°60' W 001°14'510.2
2017-Apr-23 16:31N 55°01' W 001°23'3 6.1
2017-Apr-23 16:00N 54°59' W 001°27'0 0.2
2017-Apr-23 15:24N 54°59' W 001°27'0 0.0
2017-Apr-23 15:00N 54°59' W 001°27'0 0.0
2017-Apr-23 14:00N 54°59' W 001°27'0 0.0
2017-Apr-23 13:23N 54°59' W 001°27'0 0.0
2017-Apr-23 12:57N 54°59' W 001°27'1 1.4
2017-Apr-23 12:31N 54°60' W 001°27'3 6.2
2017-Apr-23 12:01N 55°01' W 001°22'3 5.1
2017-Apr-23 11:30N 55°02' W 001°18'3 6.9
2017-Apr-23 11:00N 55°04' W 001°13'4 8.8
2017-Apr-23 10:30N 55°05' W 001°05'5 9.2
2017-Apr-23 10:00N 55°07' W 000°58'5 9.2
2017-Apr-23 09:30N 55°09' W 000°51'4 8.9
2017-Apr-23 09:00N 55°12' W 000°44'39712.1
2017-Apr-22 00:05N 57°50' E 010°16'112.2
2017-Apr-22 00:00N 57°50' E 010°18'612.2
2017-Apr-21 23:30N 57°50' E 010°29'611.2
2017-Apr-21 22:58N 57°50' E 010°41'510.7
2017-Apr-21 22:30N 57°47' E 010°48'612.4
2017-Apr-21 22:00N 57°43' E 010°56'612.5
2017-Apr-21 21:30N 57°38' E 011°05'612.4
2017-Apr-21 21:01N 57°34' E 011°14'612.2
2017-Apr-21 20:29N 57°30' E 011°23'511.1
2017-Apr-21 20:00N 57°26' E 011°28'511.1
2017-Apr-21 19:31N 57°20' E 011°32'611.5
2017-Apr-21 18:59N 57°15' E 011°36'611.7
2017-Apr-21 18:30N 57°10' E 011°39'612.2
2017-Apr-21 18:00N 57°04' E 011°43'10910.3
2017-Apr-21 07:23N 55°17' E 011°04'410.4
2017-Apr-21 07:00N 55°13' E 011°06'511.2
2017-Apr-21 06:30N 55°09' E 010°59'611.2
2017-Apr-21 06:00N 55°03' E 011°00'611.4
2017-Apr-21 05:30N 54°58' E 010°57'611.7
2017-Apr-21 05:00N 54°53' E 010°51'611.9
2017-Apr-21 04:30N 54°47' E 010°50'611.9
2017-Apr-21 04:00N 54°42' E 010°47'510.4
2017-Apr-21 03:30N 54°38' E 010°54'510.8
2017-Apr-21 03:00N 54°36' E 011°02'611.1
2017-Apr-21 02:30N 54°36' E 011°12'510.6
2017-Apr-21 02:00N 54°33' E 011°20'510.8
2017-Apr-21 01:30N 54°31' E 011°28'510.9
2017-Apr-21 01:00N 54°29' E 011°37'711.0
2017-Apr-21 00:24N 54°26' E 011°47'1510.6
2017-Apr-20 23:01N 54°28' E 012°12'011.6
2017-Apr-20 23:00N 54°28' E 012°12'611.7
2017-Apr-20 22:30N 54°34' E 012°15'611.1
2017-Apr-20 22:00N 54°38' E 012°22'711.8
2017-Apr-20 21:22N 54°42' E 012°33'3111.2
2017-Apr-20 18:39N 54°55' E 013°21'211.4
2017-Apr-20 18:27N 54°56' E 013°24'511.7
2017-Apr-20 18:00N 54°58' E 013°33'611.7
2017-Apr-20 17:29N 54°60' E 013°43'611.6
2017-Apr-20 16:58N 55°02' E 013°52'511.5
2017-Apr-20 16:30N 55°04' E 014°01'611.0
2017-Apr-20 16:00N 55°08' E 014°08'611.1
2017-Apr-20 15:30N 55°12' E 014°14'611.3
2017-Apr-20 15:00N 55°17' E 014°20'611.1
2017-Apr-20 14:30N 55°21' E 014°26'1110.8
2017-Apr-20 13:30N 55°28' E 014°40'510.7
2017-Apr-20 13:00N 55°31' E 014°48'611.0
2017-Apr-20 12:30N 55°34' E 014°57'611.6
2017-Apr-20 12:00N 55°36' E 015°06'611.6
2017-Apr-20 11:27N 55°40' E 015°16'611.6
2017-Apr-20 10:58N 55°42' E 015°25'33411.0
2017-Apr-19 04:39N 59°34' E 022°53'311.3
2017-Apr-19 04:25N 59°35' E 022°58'511.2
2017-Apr-19 04:00N 59°36' E 023°07'611.1
2017-Apr-19 03:30N 59°38' E 023°18'511.1
2017-Apr-19 03:00N 59°40' E 023°28'611.2
2017-Apr-19 02:29N 59°41' E 023°40'511.3
2017-Apr-19 02:00N 59°43' E 023°50'611.4
2017-Apr-19 01:30N 59°44' E 024°01'611.4
2017-Apr-19 01:00N 59°46' E 024°12'711.5
2017-Apr-19 00:21N 59°47' E 024°26'4511.4
2017-Apr-18 20:24N 59°56' E 025°54'1711.1
2017-Apr-18 18:54N 60°00' E 026°26'1310.8
2017-Apr-18 17:42N 60°00' E 026°52'910.6
2017-Apr-18 16:50N 60°02' E 027°10'410.8
2017-Apr-18 16:29N 60°04' E 027°17'511.1
2017-Apr-18 16:00N 60°06' E 027°26'612.0
2017-Apr-18 15:30N 60°09' E 027°36'611.3
2017-Apr-18 15:00N 60°12' E 027°46'1110.8
2017-Apr-18 14:00N 60°10' E 028°07'510.8
2017-Apr-18 13:30N 60°08' E 028°17'610.9
2017-Apr-18 13:00N 60°05' E 028°26'510.9
2017-Apr-18 12:30N 60°03' E 028°37'611.1
2017-Apr-18 12:00N 60°03' E 028°48'611.1
2017-Apr-18 11:30N 60°02' E 028°59'611.4
2017-Apr-18 11:00N 60°02' E 029°10'611.4
2017-Apr-18 10:29N 60°02' E 029°22'6 9.7
2017-Apr-18 09:55N 60°01' E 029°33'5 9.8
2017-Apr-18 09:26N 59°59' E 029°42'4 9.7
2017-Apr-18 09:00N 59°57' E 029°49'612.7
2017-Apr-18 08:30N 59°55' E 030°01'5 9.4
2017-Apr-18 08:00N 59°53' E 030°10'1 2.1
2017-Apr-18 07:25N 59°53' E 030°12'0 0.0
2017-Apr-18 06:58N 59°53' E 030°12'0 0.2
2017-Apr-18 06:28N 59°53' E 030°12'0 0.2
2017-Apr-18 05:58N 59°53' E 030°12'0 0.0
2017-Apr-18 05:24N 59°53' E 030°12'0 0.0
2017-Apr-18 05:00N 59°53' E 030°12'0 0.0
2017-Apr-18 04:30N 59°53' E 030°12'0 0.0
2017-Apr-18 04:00N 59°53' E 030°12'0 0.2
2017-Apr-18 03:30N 59°53' E 030°12'0 0.2
2017-Apr-18 02:59N 59°53' E 030°12'0 0.0
2017-Apr-18 02:29N 59°53' E 030°12'0 0.2
2017-Apr-18 01:59N 59°53' E 030°12'0 0.2
2017-Apr-18 01:29N 59°53' E 030°12'0 0.0
2017-Apr-18 00:58N 59°53' E 030°12'0 0.0
2017-Apr-18 00:28N 59°53' E 030°12'0 0.0
2017-Apr-17 23:58N 59°53' E 030°12'0 0.0
2017-Apr-17 23:28N 59°53' E 030°12'0 0.2
2017-Apr-17 22:58N 59°53' E 030°12'0 0.2
2017-Apr-17 22:30N 59°53' E 030°12'0 0.0
2017-Apr-17 22:00N 59°53' E 030°12'0 0.0
2017-Apr-17 21:30N 59°53' E 030°12'0 0.2
2017-Apr-17 21:00N 59°53' E 030°12'0 0.0
2017-Apr-17 20:30N 59°53' E 030°12'0 0.2
2017-Apr-17 19:59N 59°53' E 030°12'0 0.0
2017-Apr-17 19:29N 59°53' E 030°12'0 0.0
2017-Apr-17 18:59N 59°53' E 030°12'0 0.0
2017-Apr-17 18:29N 59°53' E 030°12'0 0.0
2017-Apr-17 17:58N 59°53' E 030°12'0 0.0
2017-Apr-17 17:28N 59°53' E 030°12'0 0.0
2017-Apr-17 16:58N 59°53' E 030°12'0 0.0
2017-Apr-17 16:28N 59°53' E 030°12'0 0.0
2017-Apr-17 15:58N 59°53' E 030°12'0 0.0
2017-Apr-17 15:27N 59°53' E 030°12'0 0.0
2017-Apr-17 15:00N 59°53' E 030°12'  

Dump ship's entire track history